createdAt,value
2023-03-05T00:02:27.419Z,-1.13
2023-03-05T00:04:58.489Z,-1.10
2023-03-05T00:07:25.778Z,-1.13
2023-03-05T00:09:53.090Z,-1.22
2023-03-05T00:12:20.484Z,-1.23
2023-03-05T00:14:49.355Z,-1.35
2023-03-05T00:17:18.583Z,-1.57
2023-03-05T00:19:50.165Z,-1.70
2023-03-05T00:22:21.821Z,-1.64
2023-03-05T00:24:53.773Z,-1.73
2023-03-05T00:27:29.592Z,-1.83
2023-03-05T00:30:13.930Z,-1.77
2023-03-05T00:32:44.803Z,-1.80
2023-03-05T00:35:20.601Z,-1.82
2023-03-05T00:37:50.618Z,-1.86
2023-03-05T00:40:20.276Z,-1.77
2023-03-05T00:42:49.432Z,-1.73
2023-03-05T00:45:18.886Z,-1.75
2023-03-05T00:47:48.341Z,-1.82
2023-03-05T00:50:18.025Z,-1.61
2023-03-05T00:52:46.743Z,-1.68
2023-03-05T00:55:15.464Z,-1.58
2023-03-05T00:57:44.088Z,-1.56
2023-03-05T01:00:15.262Z,-1.57
2023-03-05T01:02:43.447Z,-1.63
2023-03-05T01:05:18.690Z,-1.63
2023-03-05T01:07:48.333Z,-1.67
2023-03-05T01:10:17.154Z,-1.61
2023-03-05T01:12:50.425Z,-1.66
2023-03-05T01:15:19.528Z,-1.49
2023-03-05T01:17:48.014Z,-1.53
2023-03-05T01:20:19.103Z,-1.43
2023-03-05T01:22:58.543Z,-1.40
2023-03-05T01:25:33.943Z,-1.31
2023-03-05T01:28:01.841Z,-1.27
2023-03-05T01:30:32.069Z,-1.29
2023-03-05T01:33:00.252Z,-1.23
2023-03-05T01:35:28.340Z,-1.14
2023-03-05T01:37:56.291Z,-1.02
2023-03-05T01:40:27.158Z,-0.96
2023-03-05T01:43:28.475Z,-1.04
2023-03-05T01:46:24.289Z,-1.07
2023-03-05T01:49:20.239Z,-1.33
2023-03-05T01:52:17.938Z,-1.29
2023-03-05T01:54:56.344Z,-1.33
2023-03-05T01:57:30.753Z,-1.44
2023-03-05T02:00:04.358Z,-1.46
2023-03-05T02:02:43.654Z,-1.67
2023-03-05T02:05:16.541Z,-1.83
2023-03-05T02:07:47.516Z,-2.06
2023-03-05T02:10:27.513Z,-2.34
2023-03-05T02:12:58.811Z,-2.35
2023-03-05T02:15:26.843Z,-2.35
2023-03-05T02:18:01.449Z,-2.41
2023-03-05T02:20:45.408Z,-2.44
2023-03-05T02:23:15.734Z,-2.54
2023-03-05T02:25:44.176Z,-2.52
2023-03-05T02:28:35.296Z,-2.56
2023-03-05T02:31:26.524Z,-2.61
2023-03-05T02:33:58.640Z,-2.65
2023-03-05T02:36:27.602Z,-2.54
2023-03-05T02:38:58.149Z,-2.63
2023-03-05T02:41:27.467Z,-2.58
2023-03-05T02:43:58.034Z,-2.59
2023-03-05T02:46:33.087Z,-2.64
2023-03-05T02:49:02.060Z,-2.77
2023-03-05T02:51:30.764Z,-2.75
2023-03-05T02:54:02.579Z,-2.68
2023-03-05T02:56:33.246Z,-2.68
2023-03-05T02:59:04.596Z,-2.79
2023-03-05T03:01:32.166Z,-2.79
2023-03-05T03:04:00.789Z,-2.78
2023-03-05T03:06:29.441Z,-2.91
2023-03-05T03:08:58.525Z,-2.86
2023-03-05T03:11:30.199Z,-2.94
2023-03-05T03:13:59.921Z,-2.91
2023-03-05T03:16:29.423Z,-2.95
2023-03-05T03:18:57.857Z,-2.91
2023-03-05T03:21:27.271Z,-3.03
2023-03-05T03:23:55.690Z,-2.98
2023-03-05T03:26:23.836Z,-2.95
2023-03-05T03:28:51.640Z,-3.05
2023-03-05T03:31:20.169Z,-3.05
2023-03-05T03:33:48.844Z,-3.12
2023-03-05T03:36:16.980Z,-3.14
2023-03-05T03:38:45.448Z,-3.07
2023-03-05T03:41:14.020Z,-3.01
2023-03-05T03:43:42.231Z,-3.18
2023-03-05T03:46:10.482Z,-3.13
2023-03-05T03:48:38.374Z,-3.13
2023-03-05T03:51:07.454Z,-3.11
2023-03-05T03:53:36.743Z,-3.11
2023-03-05T03:56:05.034Z,-3.07
2023-03-05T03:58:33.674Z,-3.07
2023-03-05T04:01:01.680Z,-3.11
2023-03-05T04:03:29.867Z,-3.01
2023-03-05T04:05:58.534Z,-2.89
2023-03-05T04:08:33.201Z,-3.05
2023-03-05T04:11:02.336Z,-2.86
2023-03-05T04:13:30.024Z,-2.84
2023-03-05T04:15:58.311Z,-2.91
2023-03-05T04:18:26.024Z,-2.79
2023-03-05T04:20:54.033Z,-2.83
2023-03-05T04:23:23.460Z,-2.81
2023-03-05T04:25:51.916Z,-2.82
2023-03-05T04:28:19.768Z,-2.92
2023-03-05T04:30:47.679Z,-2.96
2023-03-05T04:33:16.058Z,-3.00
2023-03-05T04:35:43.755Z,-3.02
2023-03-05T04:38:18.359Z,-3.03
2023-03-05T04:40:46.862Z,-3.10
2023-03-05T04:43:14.987Z,-3.03
2023-03-05T04:45:43.705Z,-3.00
2023-03-05T04:48:13.148Z,-3.10
2023-03-05T04:50:43.031Z,-3.05
2023-03-05T04:53:11.773Z,-3.02
2023-03-05T04:55:40.150Z,-2.99
2023-03-05T04:58:11.776Z,-3.02
2023-03-05T05:00:39.560Z,-3.11
2023-03-05T05:03:08.057Z,-3.16
2023-03-05T05:05:36.129Z,-3.21
2023-03-05T05:08:04.521Z,-3.17
2023-03-05T05:10:32.499Z,-3.16
2023-03-05T05:13:00.408Z,-3.10
2023-03-05T05:15:28.620Z,-3.22
2023-03-05T05:17:56.457Z,-3.23
2023-03-05T05:20:25.640Z,-3.15
2023-03-05T05:22:54.106Z,-3.08
2023-03-05T05:25:37.216Z,-3.16
2023-03-05T05:28:09.995Z,-3.06
2023-03-05T05:30:37.325Z,-3.10
2023-03-05T05:33:04.696Z,-3.02
2023-03-05T05:35:31.833Z,-3.21
2023-03-05T05:37:59.335Z,-3.15
2023-03-05T05:40:26.375Z,-3.13
2023-03-05T05:42:54.130Z,-3.11
2023-03-05T05:45:21.675Z,-3.02
2023-03-05T05:47:51.489Z,-3.01
2023-03-05T05:50:22.034Z,-3.01
2023-03-05T05:52:52.170Z,-2.97
2023-03-05T05:55:19.359Z,-2.94
2023-03-05T05:57:46.877Z,-2.91
2023-03-05T06:00:15.405Z,-2.79
2023-03-05T06:02:43.655Z,-2.77
2023-03-05T06:05:14.878Z,-2.77
2023-03-05T06:07:43.051Z,-2.63
2023-03-05T06:10:10.858Z,-2.71
2023-03-05T06:12:38.288Z,-2.67
2023-03-05T06:15:05.950Z,-2.64
2023-03-05T06:17:33.256Z,-2.59
2023-03-05T06:20:01.107Z,-2.41
2023-03-05T06:22:28.561Z,-2.63
2023-03-05T06:24:55.973Z,-2.28
2023-03-05T06:27:23.437Z,-2.30
2023-03-05T06:29:53.277Z,-2.36
2023-03-05T06:32:20.859Z,-2.26
2023-03-05T06:34:48.337Z,-2.15
2023-03-05T06:37:15.761Z,-1.96
2023-03-05T06:39:42.874Z,-1.98
2023-03-05T06:42:10.299Z,-2.02
2023-03-05T06:44:40.990Z,-1.85
2023-03-05T06:47:10.547Z,-1.70
2023-03-05T06:49:39.051Z,-1.57
2023-03-05T06:52:07.426Z,-1.75
2023-03-05T06:54:34.459Z,-1.44
2023-03-05T06:57:01.945Z,-1.37
2023-03-05T06:59:29.254Z,-1.31
2023-03-05T07:01:56.642Z,-1.18
2023-03-05T07:04:24.497Z,-1.03
2023-03-05T07:06:51.918Z,-0.94
2023-03-05T07:09:18.914Z,-0.68
2023-03-05T07:11:46.532Z,-0.74
2023-03-05T07:14:13.761Z,-0.57
2023-03-05T07:16:41.415Z,-0.43
2023-03-05T07:19:10.882Z,-0.41
2023-03-05T07:21:40.061Z,-0.48
2023-03-05T07:24:08.159Z,-0.46
2023-03-05T07:26:35.784Z,-0.20
2023-03-05T07:29:03.080Z,-0.12
2023-03-05T07:31:31.898Z,-0.33
2023-03-05T07:34:01.482Z,-0.06
2023-03-05T07:36:28.804Z,-0.02
2023-03-05T07:38:56.087Z,0.10
2023-03-05T07:41:23.906Z,0.03
2023-03-05T07:43:53.431Z,0.00
2023-03-05T07:46:22.520Z,0.38
2023-03-05T07:48:50.050Z,0.13
2023-03-05T07:51:20.114Z,0.22
2023-03-05T07:53:48.528Z,0.45
2023-03-05T07:56:27.475Z,0.77
2023-03-05T07:58:54.680Z,0.79
2023-03-05T08:01:22.260Z,0.74
2023-03-05T08:03:49.313Z,1.04
2023-03-05T08:06:17.000Z,0.95
2023-03-05T08:08:44.250Z,0.93
2023-03-05T08:11:14.377Z,1.33
2023-03-05T08:13:41.665Z,0.86
2023-03-05T08:16:15.323Z,1.45
2023-03-05T08:18:43.118Z,1.55
2023-03-05T08:21:33.697Z,1.32
2023-03-05T08:24:06.112Z,1.60
2023-03-05T08:26:37.726Z,1.43
2023-03-05T08:29:05.706Z,1.37
2023-03-05T08:31:33.464Z,1.34
2023-03-05T08:34:02.291Z,1.64
2023-03-05T08:36:30.038Z,1.84
2023-03-05T08:38:59.150Z,1.94
2023-03-05T08:41:26.987Z,1.84
2023-03-05T08:43:54.060Z,2.30
2023-03-05T08:46:21.594Z,2.31
2023-03-05T08:48:48.752Z,1.93
2023-03-05T08:51:18.939Z,2.16
2023-03-05T08:53:47.138Z,2.40
2023-03-05T08:56:15.165Z,2.03
2023-03-05T08:58:43.513Z,2.47
2023-03-05T09:01:11.179Z,2.57
2023-03-05T09:03:39.073Z,2.57
2023-03-05T09:06:09.515Z,2.70
2023-03-05T09:08:36.996Z,2.82
2023-03-05T09:11:06.566Z,2.27
2023-03-05T09:13:34.386Z,2.53
2023-03-05T09:16:04.767Z,2.81
2023-03-05T09:18:33.261Z,2.62
2023-03-05T09:21:04.906Z,3.03
2023-03-05T09:23:32.176Z,3.00
2023-03-05T09:26:00.624Z,2.88
2023-03-05T09:28:28.630Z,2.92
2023-03-05T09:30:56.210Z,2.42
2023-03-05T09:33:24.112Z,2.47
2023-03-05T09:35:52.001Z,3.29
2023-03-05T09:38:20.475Z,3.48
2023-03-05T09:43:31.466Z,3.21
2023-03-05T09:46:03.943Z,3.61
2023-03-05T09:48:49.953Z,3.37
2023-03-05T09:51:31.979Z,3.01
2023-03-05T09:54:11.122Z,3.26
2023-03-05T09:56:45.958Z,3.13
2023-03-05T09:59:40.545Z,2.17
2023-03-05T10:02:23.048Z,2.22
2023-03-05T10:05:00.711Z,2.89
2023-03-05T10:07:32.291Z,3.32
2023-03-05T10:10:03.373Z,3.90
2023-03-05T10:12:44.713Z,3.77
2023-03-05T10:15:20.379Z,3.69
2023-03-05T10:18:21.751Z,3.72
2023-03-05T10:21:01.911Z,3.77
2023-03-05T10:23:32.683Z,4.58
2023-03-05T10:26:08.807Z,4.05
2023-03-05T10:28:48.726Z,4.59
2023-03-05T10:31:41.358Z,4.63
2023-03-05T10:34:32.803Z,4.50
2023-03-05T10:37:38.266Z,4.68
2023-03-05T10:40:09.756Z,4.69
2023-03-05T10:43:05.859Z,4.15
2023-03-05T10:45:40.186Z,4.68
2023-03-05T10:48:21.461Z,5.03
2023-03-05T10:50:56.113Z,4.60
2023-03-05T10:53:26.958Z,4.34
2023-03-05T10:55:56.765Z,3.62
2023-03-05T10:58:25.255Z,4.23
2023-03-05T11:01:22.120Z,4.12
2023-03-05T11:04:01.357Z,5.16
2023-03-05T11:06:36.942Z,4.77
2023-03-05T11:09:22.564Z,4.14
2023-03-05T11:12:13.612Z,4.87
2023-03-05T11:15:04.347Z,3.50
2023-03-05T11:17:40.090Z,3.28
2023-03-05T11:20:26.673Z,3.83
2023-03-05T11:23:16.275Z,4.00
2023-03-05T11:26:02.764Z,4.16
2023-03-05T11:28:39.493Z,4.16
2023-03-05T11:31:16.223Z,4.55
2023-03-05T11:34:02.607Z,5.09
2023-03-05T11:36:41.984Z,4.98
2023-03-05T11:39:17.569Z,5.09
2023-03-05T11:42:07.096Z,4.90
2023-03-05T11:44:40.978Z,4.87
2023-03-05T11:47:18.398Z,3.96
2023-03-05T11:49:49.637Z,3.79
2023-03-05T11:52:28.105Z,6.06
2023-03-05T11:55:18.602Z,4.02
2023-03-05T11:57:57.418Z,4.95
2023-03-05T12:00:30.076Z,4.19
2023-03-05T12:03:00.640Z,5.13
2023-03-05T12:05:29.083Z,4.44
2023-03-05T12:08:01.491Z,4.02
2023-03-05T12:10:29.641Z,4.11
2023-03-05T12:13:04.422Z,4.08
2023-03-05T12:15:41.779Z,5.69
2023-03-05T12:18:09.074Z,6.67
2023-03-05T12:20:51.562Z,5.73
2023-03-05T12:23:21.988Z,5.08
2023-03-05T12:25:52.314Z,6.63
2023-03-05T12:28:34.581Z,5.43
2023-03-05T12:31:05.800Z,4.00
2023-03-05T12:33:41.796Z,5.56
2023-03-05T12:36:21.278Z,4.99
2023-03-05T12:38:57.828Z,5.41
2023-03-05T12:41:27.946Z,4.45
2023-03-05T12:44:04.358Z,4.84
2023-03-05T12:46:35.831Z,5.40
2023-03-05T12:49:18.686Z,4.48
2023-03-05T12:51:54.284Z,3.43
2023-03-05T12:54:41.058Z,3.42
2023-03-05T12:57:17.221Z,3.42
2023-03-05T12:59:50.084Z,3.30
2023-03-05T13:02:27.156Z,4.75
2023-03-05T13:04:59.557Z,5.43
2023-03-05T13:07:27.136Z,4.66
2023-03-05T13:09:59.754Z,5.56
2023-03-05T13:12:30.235Z,5.16
2023-03-05T13:14:59.110Z,4.04
2023-03-05T13:17:32.827Z,5.04
2023-03-05T13:20:02.114Z,5.52
2023-03-05T13:22:31.250Z,5.41
2023-03-05T13:25:15.473Z,4.39
2023-03-05T13:27:43.772Z,4.24
2023-03-05T13:30:25.194Z,4.69
2023-03-05T13:32:54.828Z,4.94
2023-03-05T13:35:22.590Z,4.69
2023-03-05T13:37:50.459Z,4.79
2023-03-05T13:40:29.508Z,5.30
2023-03-05T13:43:10.226Z,4.64
2023-03-05T13:45:37.524Z,4.83
2023-03-05T13:48:10.369Z,5.36
2023-03-05T13:50:40.320Z,4.93
2023-03-05T13:53:36.856Z,5.40
2023-03-05T13:56:07.531Z,5.57
2023-03-05T13:58:49.310Z,5.66
2023-03-05T14:01:25.727Z,4.82
2023-03-05T14:03:57.289Z,5.52
2023-03-05T14:06:28.378Z,6.50
2023-03-05T14:09:05.180Z,5.94
2023-03-05T14:11:36.231Z,5.49
2023-03-05T14:14:15.825Z,5.63
2023-03-05T14:16:44.019Z,5.90
2023-03-05T14:19:38.786Z,4.66
2023-03-05T14:22:07.753Z,4.70
2023-03-05T14:24:37.803Z,4.88
2023-03-05T14:27:13.501Z,4.70
2023-03-05T14:29:46.682Z,5.07
2023-03-05T14:32:29.145Z,5.00
2023-03-05T14:35:00.025Z,4.50
2023-03-05T14:37:45.250Z,4.28
2023-03-05T14:40:13.979Z,4.62
2023-03-05T14:42:42.224Z,3.67
2023-03-05T14:45:17.496Z,4.50
2023-03-05T14:47:45.909Z,5.22
2023-03-05T14:50:19.319Z,4.53
2023-03-05T14:52:50.085Z,3.75
2023-03-05T14:55:20.758Z,4.35
2023-03-05T14:57:51.626Z,5.19
2023-03-05T15:00:23.299Z,4.07
2023-03-05T15:02:51.240Z,4.19
2023-03-05T15:05:19.947Z,4.16
2023-03-05T15:07:48.703Z,3.84
2023-03-05T15:10:19.079Z,3.84
2023-03-05T15:12:46.633Z,4.43
2023-03-05T15:15:15.132Z,5.17
2023-03-05T15:17:47.506Z,4.69
2023-03-05T15:20:19.981Z,4.11
2023-03-05T15:22:47.645Z,3.19
2023-03-05T15:25:16.256Z,3.38
2023-03-05T15:27:43.528Z,2.97
2023-03-05T15:30:28.517Z,2.50
2023-03-05T15:32:57.826Z,2.85
2023-03-05T15:35:25.911Z,2.55
2023-03-05T15:37:53.622Z,2.59
2023-03-05T15:40:22.402Z,2.78
2023-03-05T15:42:49.674Z,2.42
2023-03-05T15:45:17.318Z,2.40
2023-03-05T15:47:44.853Z,2.17
2023-03-05T15:50:12.397Z,2.46
2023-03-05T15:52:39.799Z,2.15
2023-03-05T15:55:08.425Z,2.10
2023-03-05T15:57:38.369Z,2.15
2023-03-05T16:00:07.524Z,2.27
2023-03-05T16:02:37.263Z,1.88
2023-03-05T16:05:05.811Z,2.04
2023-03-05T16:07:36.379Z,1.96
2023-03-05T16:10:05.005Z,2.13
2023-03-05T16:12:41.063Z,1.79
2023-03-05T16:15:15.476Z,1.70
2023-03-05T16:17:45.552Z,1.93
2023-03-05T16:20:15.164Z,1.65
2023-03-05T16:22:43.508Z,1.54
2023-03-05T16:25:11.861Z,1.49
2023-03-05T16:27:39.622Z,1.60
2023-03-05T16:30:08.958Z,1.56
2023-03-05T16:32:37.880Z,1.49
2023-03-05T16:35:06.223Z,1.42
2023-03-05T16:37:33.748Z,1.25
2023-03-05T16:40:01.490Z,1.40
2023-03-05T16:42:29.408Z,1.16
2023-03-05T16:44:59.256Z,1.26
2023-03-05T16:47:27.685Z,1.06
2023-03-05T16:49:55.627Z,1.41
2023-03-05T16:52:23.489Z,1.33
2023-03-05T16:54:54.245Z,1.04
2023-03-05T16:57:24.090Z,0.91
2023-03-05T16:59:54.150Z,1.19
2023-03-05T17:02:21.852Z,1.06
2023-03-05T17:04:50.562Z,0.98
2023-03-05T17:07:18.436Z,1.11
2023-03-05T17:09:48.024Z,0.97
2023-03-05T17:12:15.462Z,0.89
2023-03-05T17:14:43.197Z,0.83
2023-03-05T17:17:10.826Z,0.64
2023-03-05T17:19:39.415Z,0.46
2023-03-05T17:22:07.018Z,0.48
2023-03-05T17:24:34.559Z,0.57
2023-03-05T17:27:01.661Z,0.58
2023-03-05T17:29:30.643Z,0.47
2023-03-05T17:31:57.897Z,0.58
2023-03-05T17:34:35.584Z,0.38
2023-03-05T17:37:05.448Z,0.25
2023-03-05T17:39:33.663Z,0.05
2023-03-05T17:42:01.547Z,0.11
2023-03-05T17:44:29.040Z,0.21
2023-03-05T17:46:56.397Z,0.12
2023-03-05T17:49:24.164Z,0.10
2023-03-05T17:51:51.948Z,0.06
2023-03-05T17:54:19.694Z,0.00
2023-03-05T17:56:48.206Z,-0.06
2023-03-05T17:59:16.429Z,-0.03
2023-03-05T18:01:44.039Z,0.06
2023-03-05T18:04:12.972Z,0.03
2023-03-05T18:06:41.194Z,-0.17
2023-03-05T18:09:09.903Z,-0.04
2023-03-05T18:11:37.436Z,0.13
2023-03-05T18:14:05.046Z,0.03
2023-03-05T18:16:32.322Z,0.04
2023-03-05T18:19:00.256Z,-0.15
2023-03-05T18:21:28.183Z,-0.14
2023-03-05T18:23:56.250Z,-0.21
2023-03-05T18:26:23.612Z,-0.29
2023-03-05T18:28:51.306Z,-0.36
2023-03-05T18:31:19.003Z,-0.26
2023-03-05T18:33:46.716Z,0.03
2023-03-05T18:36:15.041Z,-0.22
2023-03-05T18:38:43.149Z,-0.40
2023-03-05T18:41:21.670Z,-0.30
2023-03-05T18:43:50.629Z,-0.35
2023-03-05T18:46:18.437Z,-0.36
2023-03-05T18:48:48.081Z,-0.31
2023-03-05T18:51:17.988Z,-0.28
2023-03-05T18:53:46.204Z,-0.28
2023-03-05T18:56:15.161Z,-0.56
2023-03-05T18:58:42.900Z,-0.50
2023-03-05T19:01:10.073Z,-0.67
2023-03-05T19:03:37.581Z,-0.56
2023-03-05T19:06:07.012Z,-0.59
2023-03-05T19:08:34.828Z,-0.46
2023-03-05T19:11:02.647Z,-0.37
2023-03-05T19:13:40.783Z,-0.41
2023-03-05T19:16:12.388Z,-0.71
2023-03-05T19:19:15.358Z,-0.46
2023-03-05T19:21:44.682Z,-0.30
2023-03-05T19:24:12.975Z,-0.62
2023-03-05T19:26:40.261Z,-0.58
2023-03-05T19:29:08.467Z,-0.57
2023-03-05T19:31:36.261Z,-0.55
2023-03-05T19:34:05.860Z,-0.61
2023-03-05T19:36:34.668Z,-0.54
2023-03-05T19:39:07.790Z,-0.70
2023-03-05T19:41:35.999Z,-0.69
2023-03-05T19:44:04.220Z,-0.80
2023-03-05T19:46:31.655Z,-0.73
2023-03-05T19:48:59.298Z,-0.73
2023-03-05T19:51:26.991Z,-0.86
2023-03-05T19:53:54.642Z,-0.78
2023-03-05T19:56:21.843Z,-0.88
2023-03-05T19:58:49.367Z,-0.99
2023-03-05T20:01:20.047Z,-0.92
2023-03-05T20:03:50.499Z,-0.93
2023-03-05T20:06:18.543Z,-0.84
2023-03-05T20:08:46.604Z,-1.04
2023-03-05T20:11:16.970Z,-1.08
2023-03-05T20:13:45.094Z,-1.03
2023-03-05T20:16:17.101Z,-1.24
2023-03-05T20:18:45.310Z,-1.12
2023-03-05T20:21:21.225Z,-1.03
2023-03-05T20:23:50.866Z,-1.11
2023-03-05T20:26:19.815Z,-1.16
2023-03-05T20:28:48.713Z,-1.09
2023-03-05T20:31:20.156Z,-1.29
2023-03-05T20:33:49.406Z,-1.19
2023-03-05T20:36:17.469Z,-1.16
2023-03-05T20:38:47.018Z,-1.12
2023-03-05T20:41:18.022Z,-1.30
2023-03-05T20:43:49.098Z,-1.20
2023-03-05T20:46:27.605Z,-1.27
2023-03-05T20:48:59.245Z,-1.48
2023-03-05T20:51:36.509Z,-1.33
2023-03-05T20:54:08.327Z,-1.44
2023-03-05T20:56:36.967Z,-1.39
2023-03-05T20:59:08.651Z,-1.51
2023-03-05T21:01:39.390Z,-1.43
2023-03-05T21:04:07.830Z,-1.52
2023-03-05T21:06:35.986Z,-1.31
2023-03-05T21:09:05.071Z,-1.59
2023-03-05T21:11:34.018Z,-1.46
2023-03-05T21:14:01.980Z,-1.41
2023-03-05T21:16:30.084Z,-1.61
2023-03-05T21:18:58.823Z,-1.74
2023-03-05T21:21:26.977Z,-1.56
2023-03-05T21:23:55.578Z,-1.68
2023-03-05T21:26:23.480Z,-1.70
2023-03-05T21:28:51.818Z,-1.76
2023-03-05T21:31:22.109Z,-1.81
2023-03-05T21:33:50.074Z,-1.81
2023-03-05T21:36:19.003Z,-1.73
2023-03-05T21:38:48.549Z,-1.77
2023-03-05T21:41:18.246Z,-1.87
2023-03-05T21:43:46.341Z,-1.84
2023-03-05T21:46:14.009Z,-1.93
2023-03-05T21:48:42.068Z,-1.93
2023-03-05T21:52:17.876Z,-1.98
2023-03-05T21:54:46.144Z,-2.06
2023-03-05T21:57:13.604Z,-2.05
2023-03-05T21:59:42.643Z,-2.08
2023-03-05T22:02:14.307Z,-2.07
2023-03-05T22:04:43.261Z,-2.29
2023-03-05T22:07:10.688Z,-2.27
2023-03-05T22:09:38.529Z,-2.42
2023-03-05T22:12:55.099Z,-2.39
2023-03-05T22:15:26.613Z,-2.08
2023-03-05T22:17:53.940Z,-2.37
2023-03-05T22:20:22.151Z,-2.40
2023-03-05T22:22:49.613Z,-2.53
2023-03-05T22:25:18.003Z,-2.42
2023-03-05T22:27:45.428Z,-2.44
2023-03-05T22:30:13.721Z,-2.56
2023-03-05T22:32:43.815Z,-2.58
2023-03-05T22:35:14.211Z,-2.63
2023-03-05T22:37:42.622Z,-2.62
2023-03-05T22:40:14.786Z,-2.58
2023-03-05T22:42:42.668Z,-2.75
2023-03-05T22:45:11.928Z,-2.66
2023-03-05T22:47:39.120Z,-2.77
2023-03-05T22:50:07.277Z,-2.74
2023-03-05T22:52:34.381Z,-2.76
2023-03-05T22:55:03.205Z,-2.75
2023-03-05T22:57:31.776Z,-2.81
2023-03-05T23:00:01.057Z,-2.82
2023-03-05T23:02:28.334Z,-2.83
2023-03-05T23:05:00.509Z,-2.86
2023-03-05T23:07:34.221Z,-2.81
2023-03-05T23:10:06.995Z,-2.79
2023-03-05T23:12:36.331Z,-2.88
2023-03-05T23:15:08.590Z,-3.01
2023-03-05T23:17:35.985Z,-2.84
2023-03-05T23:20:07.976Z,-2.84
2023-03-05T23:22:36.403Z,-2.83
2023-03-05T23:25:04.297Z,-2.82
2023-03-05T23:27:31.343Z,-2.91
2023-03-05T23:30:23.040Z,-2.82
2023-03-05T23:32:54.710Z,-2.91
2023-03-05T23:35:33.213Z,-2.71
2023-03-05T23:38:02.055Z,-2.80
2023-03-05T23:40:41.175Z,-2.76
2023-03-05T23:43:11.828Z,-2.82
2023-03-05T23:45:42.204Z,-2.87
2023-03-05T23:48:09.468Z,-2.83
2023-03-05T23:50:41.118Z,-2.81
2023-03-05T23:53:10.649Z,-2.73
2023-03-05T23:55:43.706Z,-2.80
2023-03-05T23:58:11.739Z,-2.82
